עמוד ראשי
METAR-TAF:

METAR-TAF

שדות תעופה :

San Angelo Regional Airport (Mathis Field)

San Angelo, טקסס, ארצות הברית

קו רוחב: 31-21-05N, קו אורך: 100-29-38W, גובה: 584מטר

תצפית מזג אוויר נוכחית

הדו"ח נערך לפני 40דקות, בשעה 12:51 UTC
רוח 3קשר מכיוון דרום-מערב
טמפרטורת 22 צלסיוס
לחות 83%
לחץ 1022 hPa
ראות: 16.1קילומטר
שמיים נקיים

METAR: KSJT 251251Z 23003KT 10SM CLR 22/19 A3017 RMK AO2 SLP193 T02170189

זמן: 08:31 (13:31 UTC)

תחזית

הדו"ח נערך לפני 2 שעות ו 11דקות, בשעה 11:20 UTC
תחזית בתוקף מ 25 ב 12 UTC עד 26 ב 12 UTC
רוח 5קשר עם כיוונים משתנים
ראות: 10קילומטר
מעט עננים בגובה 25000רגל
מ 25 ב 1700UTC
רוח 10קשר מכיוון צפון-מזרח
ראות: 10קילומטר
עננים פזורים בגובה 25000רגל
מ 26 ב 0100UTC
רוח 8קשר מכיוון מזרח/דרום-מזרח
ראות: 10קילומטר
עננים פזורים בגובה 25000רגל

TAF: KSJT 251120Z 2512/2612 VRB05KT P6SM FEW250 FM251700 05010KT P6SM SCT250 FM260100 12008KT P6SM SCT250

תצפיות ותחזיות מזג אוויר לגבי יותר מ- 4,000 שדות תעופה ברחבי העולם. דוחות METAR ו- TAF.

התחנות הזמינות מסומנות בנקודות צהובות ואדומות על גבי המפה.

העבר את העכבר לנקודה הצבעונית על מנת לראות את שם התחנה.

לאחר מכן, לחץ כדי לראות את תוכן ואת תחזיות מזג האוויר.

כדי לשנות את המפה: לחץ על הכפתורים הירוקים עם הפלוס השחור כדי להתקרב; על הכפתור הירוק עם המקף כדי להתרחק; או בחיצים הירוקים למפות סמוכות.


METAR-TAF: